Alexander, NC (28701)

8:23 AM EDT on September 27, 2016 (GMT -0400)
Northern Horizons | | Change Station

Elev 2215 ft 35.75 °N, 82.63 °W | Updated 1 second ago

Overcast
Overcast
63.5 °F
Feels Like 63.5 °F
N
0.0
Wind Variable Wind from South
Gusts 0.0 mph

Today
High -- | Low -- °F
--% Chance of Precip.
Yesterday
High -- | Low -- °F
Precip. -- in
Pressure 30.04 in
Visibility 9.0 miles
Clouds Overcast 500 ft
Dew Point 62 °F
Humidity 94%
Rainfall 0.09 in
Snow Depth Not available.
7:22 AM 7:19 PM
Waning Crescent, 12% visible
SPECI KAVL 271202Z 00000KT 9SM OVC005 18/16 A3004 RMK AO2 T01780161
Pressure 30.04 in
Visibility 9.0 miles
Clouds Overcast 500 ft
Dew Point 62 °F
Humidity 94%
Rainfall 0.09 in
Snow Depth Not available.
7:22 AM 7:19 PM
Waning Crescent, 12% visible
SPECI KAVL 271202Z 00000KT 9SM OVC005 18/16 A3004 RMK AO2 T01780161

10-Day Weather Forecast

Almanac

Astronomy

Sep. 27, 2016 Rise Set
Actual Time
Civil Twilight
Nautical Twilight
Astronomical Twilight
Moon
Length of Visible Light
Length of Day
Tomorrow will be .
, % of the Moon is Illuminated

Today's Extremes

State Highs State Lows

Community

WunderPhotos

Upload Photos

1,942,069 photos uploaded!

WunderBlog® & News

Nearby

Air Quality

  Air Quality AQ Index Pollutant
Not available.

Snow Depth

Station Depth Elevation

Earthquake Activity

City Distance Mag. Time & Date
Minimum magnitude displayed is 2.5.

Coastal Water Temperatures

Place Temperature

Stations

Nearby Weather Stations

Station Location Temp. Windchill Dew Point Humidity Wind Precip. Elev Updated Type
                   

Watches & Warnings

There are currently no watches in effect.